Time;durP1;ratioP1;P1;durP2;ratioP2;P2;SDS_P1;SDS_P2;PMS_P1;PMS_P2;Temp;Humidity;BMP_temperature;BMP_pressure;BME280_temperature;BME280_humidity;BME280_pressure;Samples;Min_cycle;Max_cycle;Signal;HPM_P1;HPM_P2
2021/11/14 00:00:27;;;;;;;27.17;8.23;;;14.00;95.10;;;;;;5056566;28;20191;-63
2021/11/14 00:02:57;;;;;;;18.80;6.53;;;14.00;95.50;;;;;;5049266;28;20234;-63
2021/11/14 00:05:23;;;;;;;16.50;7.07;;;14.00;95.40;;;;;;5059468;28;20217;-63
2021/11/14 00:07:50;;;;;;;17.10;6.50;;;14.00;95.20;;;;;;5053848;28;20899;-63
2021/11/14 00:10:16;;;;;;;20.63;6.40;;;14.00;95.30;;;;;;5058426;28;20278;-63
2021/11/14 00:12:43;;;;;;;24.43;6.60;;;14.00;95.70;;;;;;5065352;28;20894;-63
2021/11/14 00:15:10;;;;;;;25.10;8.20;;;14.00;95.50;;;;;;5065865;28;20185;-63
2021/11/14 00:17:37;;;;;;;19.27;6.67;;;14.00;95.80;;;;;;5054791;28;20219;-64
2021/11/14 00:20:10;;;;;;;21.90;6.33;;;14.10;96.20;;;;;;5067150;28;20193;-63
2021/11/14 00:22:37;;;;;;;20.80;6.37;;;14.00;95.80;;;;;;5061134;28;20250;-63
2021/11/14 00:25:09;;;;;;;18.37;7.33;;;14.00;96.00;;;;;;5059482;28;20306;-63
2021/11/14 00:27:36;;;;;;;20.43;7.73;;;14.00;95.50;;;;;;5055610;28;20871;-64
2021/11/14 00:30:04;;;;;;;24.67;8.30;;;14.10;95.40;;;;;;5059250;28;20260;-63
2021/11/14 00:32:30;;;;;;;25.07;8.17;;;14.10;95.60;;;;;;5067170;28;20198;-63
2021/11/14 00:34:57;;;;;;;27.37;9.70;;;14.10;95.50;;;;;;5053011;28;20204;-63
2021/11/14 00:37:23;;;;;;;20.27;7.57;;;14.00;95.20;;;;;;5056465;28;20339;-63
2021/11/14 00:39:51;;;;;;;25.43;6.73;;;14.00;95.10;;;;;;5058852;28;20236;-63
2021/11/14 00:42:17;;;;;;;20.23;7.23;;;14.00;94.90;;;;;;5070771;28;20844;-63
2021/11/14 00:44:44;;;;;;;21.03;6.23;;;14.00;95.00;;;;;;5066918;28;20492;-64
2021/11/14 00:47:10;;;;;;;27.23;7.27;;;14.00;95.10;;;;;;5058086;28;20191;-64
2021/11/14 00:49:36;;;;;;;21.90;6.43;;;14.00;95.10;;;;;;5054281;28;20771;-63
2021/11/14 00:52:04;;;;;;;16.97;6.20;;;14.00;95.10;;;;;;5065277;28;20178;-63
2021/11/14 00:54:30;;;;;;;29.03;6.83;;;14.00;94.90;;;;;;5063856;28;20183;-65
2021/11/14 00:56:59;;;;;;;26.37;6.27;;;14.00;94.90;;;;;;5053930;28;20193;-63
2021/11/14 00:59:25;;;;;;;20.00;6.57;;;14.00;94.70;;;;;;5065263;28;20191;-63
2021/11/14 01:01:52;;;;;;;25.20;6.77;;;13.90;94.50;;;;;;5066735;28;20186;-64
2021/11/14 01:04:19;;;;;;;24.97;7.50;;;13.90;94.70;;;;;;5066230;28;20183;-64
2021/11/14 01:06:45;;;;;;;27.80;8.50;;;13.90;94.60;;;;;;5061422;28;20206;-63
2021/11/14 01:09:12;;;;;;;28.90;9.50;;;13.90;94.40;;;;;;5061295;28;20186;-63
2021/11/14 01:11:39;;;;;;;34.90;10.13;;;13.90;94.40;;;;;;5066222;28;20241;-65
2021/11/14 01:14:05;;;;;;;20.10;7.10;;;13.80;94.30;;;;;;5063825;28;20205;-64
2021/11/14 01:16:32;;;;;;;23.20;5.93;;;13.80;94.40;;;;;;5052543;28;20195;-64
2021/11/14 01:18:58;;;;;;;24.20;6.77;;;13.80;94.50;;;;;;5055209;28;20297;-62
2021/11/14 01:21:27;;;;;;;18.47;6.40;;;13.80;94.30;;;;;;5061963;28;20191;-63
2021/11/14 01:23:55;;;;;;;21.87;6.50;;;13.80;94.50;;;;;;5059160;28;20277;-64
2021/11/14 01:26:22;;;;;;;20.67;6.50;;;13.80;94.40;;;;;;5052667;28;20260;-64
2021/11/14 01:28:49;;;;;;;18.90;5.60;;;13.80;94.10;;;;;;5057579;28;20184;-63
2021/11/14 01:31:15;;;;;;;14.83;4.97;;;13.80;94.10;;;;;;5052352;28;20632;-65
2021/11/14 01:33:42;;;;;;;16.67;6.47;;;13.80;94.40;;;;;;5061045;28;20197;-64
2021/11/14 01:36:08;;;;;;;23.43;5.50;;;13.80;94.50;;;;;;5064596;28;20224;-65
2021/11/14 01:38:35;;;;;;;22.90;5.57;;;13.80;94.20;;;;;;5059878;28;21375;-66
2021/11/14 01:41:13;;;;;;;19.83;6.07;;;13.80;94.10;;;;;;5065575;28;20234;-64
2021/11/14 01:43:48;;;;;;;20.43;5.60;;;13.80;94.20;;;;;;5061018;28;20187;-64
2021/11/14 01:46:16;;;;;;;28.97;5.50;;;13.70;93.90;;;;;;5062253;28;20684;-65
2021/11/14 01:48:42;;;;;;;17.83;6.17;;;13.80;94.10;;;;;;5061753;28;20329;-65
2021/11/14 01:51:09;;;;;;;23.73;6.20;;;13.80;93.90;;;;;;5065967;28;20191;-64
2021/11/14 01:53:38;;;;;;;21.63;6.13;;;13.80;94.00;;;;;;5065380;28;20193;-65
2021/11/14 01:56:09;;;;;;;14.40;5.30;;;13.80;93.90;;;;;;5065168;28;20658;-65
2021/11/14 01:58:37;;;;;;;18.87;4.93;;;13.80;93.90;;;;;;5061407;28;20202;-64
2021/11/14 02:01:18;;;;;;;26.57;5.30;;;13.80;93.40;;;;;;5054758;28;20270;-64
2021/11/14 02:03:50;;;;;;;15.30;5.17;;;13.90;93.50;;;;;;5057205;28;20187;-64
2021/11/14 02:06:18;;;;;;;25.90;5.93;;;13.90;93.50;;;;;;5058599;28;20214;-65
2021/11/14 02:08:48;;;;;;;32.03;6.83;;;13.80;93.30;;;;;;5060316;28;20283;-65
2021/11/14 02:11:16;;;;;;;30.80;6.43;;;13.80;93.20;;;;;;5066102;28;20537;-65
2021/11/14 02:13:45;;;;;;;22.20;6.57;;;13.80;93.30;;;;;;5058148;28;20195;-64
2021/11/14 02:16:14;;;;;;;23.53;5.90;;;13.70;93.50;;;;;;5054518;28;20184;-64
2021/11/14 02:18:40;;;;;;;17.90;5.40;;;13.70;93.60;;;;;;5049395;28;20286;-64
2021/11/14 02:21:09;;;;;;;15.03;5.70;;;13.70;94.00;;;;;;5064295;28;20195;-66
2021/11/14 02:23:37;;;;;;;16.23;5.47;;;13.70;94.20;;;;;;5065571;28;20202;-66
2021/11/14 02:26:04;;;;;;;18.47;6.00;;;13.70;94.40;;;;;;5062527;28;20313;-66
2021/11/14 02:28:32;;;;;;;24.63;6.73;;;13.80;94.40;;;;;;5063282;28;20266;-66
2021/11/14 02:30:59;;;;;;;35.37;9.63;;;13.80;94.20;;;;;;5053592;28;20298;-65
2021/11/14 02:33:29;;;;;;;26.50;8.97;;;13.70;93.90;;;;;;5064115;28;20278;-66
2021/11/14 02:36:06;;;;;;;25.47;7.60;;;13.70;93.90;;;;;;5057861;28;20188;-66
2021/11/14 02:38:33;;;;;;;18.23;6.13;;;13.70;93.90;;;;;;5051801;28;20241;-66
2021/11/14 02:41:01;;;;;;;20.17;4.93;;;13.70;93.90;;;;;;5065097;28;20198;-65
2021/11/14 02:43:28;;;;;;;22.60;7.50;;;13.70;93.90;;;;;;5067199;28;20680;-65
2021/11/14 02:45:54;;;;;;;25.50;6.23;;;13.70;94.10;;;;;;5052929;28;20198;-64
2021/11/14 02:48:22;;;;;;;20.57;5.63;;;13.70;94.20;;;;;;5057129;28;20261;-63
2021/11/14 02:50:53;;;;;;;14.53;5.20;;;13.70;94.40;;;;;;5068045;28;20891;-63
2021/11/14 02:53:20;;;;;;;13.10;4.97;;;13.70;93.90;;;;;;5069377;28;20190;-64
2021/11/14 02:55:47;;;;;;;17.10;5.73;;;13.70;93.60;;;;;;5061704;28;20202;-62
2021/11/14 02:58:16;;;;;;;15.33;5.13;;;13.70;93.60;;;;;;5052385;28;20232;-64
2021/11/14 03:00:57;;;;;;;15.13;4.87;;;13.80;93.50;;;;;;5065454;28;20278;-63
2021/11/14 03:03:24;;;;;;;11.53;5.10;;;13.70;93.30;;;;;;5065584;28;20228;-64
2021/11/14 03:05:51;;;;;;;17.40;5.20;;;13.70;93.20;;;;;;5058240;28;20266;-67
2021/11/14 03:08:17;;;;;;;20.40;4.83;;;13.70;93.20;;;;;;5055980;28;20658;-66
2021/11/14 03:10:43;;;;;;;15.07;5.00;;;13.60;93.00;;;;;;5056194;28;20222;-67
2021/11/14 03:13:17;;;;;;;21.83;5.30;;;13.70;93.10;;;;;;5067013;28;20718;-67
2021/11/14 03:15:49;;;;;;;28.80;5.50;;;13.70;93.10;;;;;;5062848;28;20640;-67
2021/11/14 03:18:16;;;;;;;20.37;5.23;;;13.70;93.10;;;;;;5055225;28;20204;-67
2021/11/14 03:20:47;;;;;;;10.70;5.03;;;13.70;93.00;;;;;;5066365;28;20195;-67
2021/11/14 03:23:15;;;;;;;22.63;5.40;;;13.70;93.00;;;;;;5061941;28;20309;-68
2021/11/14 03:25:43;;;;;;;10.67;4.70;;;13.70;93.10;;;;;;5056117;28;20686;-67
2021/11/14 03:28:12;;;;;;;16.27;5.20;;;13.60;93.00;;;;;;5050973;28;20192;-67
2021/11/14 03:30:39;;;;;;;16.10;4.83;;;13.60;93.10;;;;;;5066730;28;20194;-66
2021/11/14 03:33:10;;;;;;;14.87;4.80;;;13.60;93.10;;;;;;5063701;28;20195;-67
2021/11/14 03:35:47;;;;;;;21.87;4.67;;;13.60;93.20;;;;;;5061853;28;20251;-67
2021/11/14 03:38:16;;;;;;;23.57;4.90;;;13.60;93.00;;;;;;5068924;28;20297;-66
2021/11/14 03:40:43;;;;;;;15.33;4.90;;;13.60;93.10;;;;;;5066175;28;20901;-67
2021/11/14 03:43:11;;;;;;;18.97;5.00;;;13.60;93.20;;;;;;5052107;28;20206;-66
2021/11/14 03:45:39;;;;;;;12.17;5.10;;;13.60;93.30;;;;;;5041065;28;20663;-66
2021/11/14 03:48:06;;;;;;;24.43;5.37;;;13.60;93.20;;;;;;5058212;28;20205;-66
2021/11/14 03:50:34;;;;;;;19.07;4.83;;;13.60;93.10;;;;;;5062544;28;20293;-66
2021/11/14 03:53:01;;;;;;;15.07;4.90;;;13.50;92.80;;;;;;5061561;28;20236;-67
2021/11/14 03:55:28;;;;;;;10.83;4.37;;;13.50;92.80;;;;;;5064647;28;20274;-67
2021/11/14 03:57:55;;;;;;;15.50;4.70;;;13.50;92.80;;;;;;5051305;28;20215;-67
2021/11/14 04:00:26;;;;;;;13.60;4.90;;;13.50;92.70;;;;;;5064383;28;20686;-67
2021/11/14 04:02:55;;;;;;;26.83;5.03;;;13.50;92.80;;;;;;5057404;28;20188;-66
2021/11/14 04:05:23;;;;;;;16.07;4.80;;;13.50;92.80;;;;;;5062261;28;20325;-66
2021/11/14 04:07:50;;;;;;;19.07;4.27;;;13.50;93.00;;;;;;5056648;28;20222;-67
2021/11/14 04:10:17;;;;;;;18.60;4.87;;;13.50;93.10;;;;;;5060767;28;20194;-66
2021/11/14 04:12:44;;;;;;;20.10;4.70;;;13.50;93.30;;;;;;5058551;28;20209;-66
2021/11/14 04:15:14;;;;;;;12.00;4.83;;;13.50;93.50;;;;;;5064134;28;20198;-66
2021/11/14 04:17:41;;;;;;;12.07;4.93;;;13.50;93.70;;;;;;5064572;28;20777;-65
2021/11/14 04:20:11;;;;;;;12.27;4.70;;;13.60;94.00;;;;;;5051954;28;20188;-61
2021/11/14 04:22:38;;;;;;;22.93;5.20;;;13.60;94.10;;;;;;5050286;28;20797;-64
2021/11/14 04:25:09;;;;;;;17.90;4.97;;;13.70;94.40;;;;;;5065405;28;20248;-64
2021/11/14 04:27:35;;;;;;;22.60;4.80;;;13.70;94.60;;;;;;5057856;28;20295;-65
2021/11/14 04:30:02;;;;;;;17.20;5.43;;;13.70;94.50;;;;;;5063674;28;20194;-65
2021/11/14 04:32:28;;;;;;;16.43;5.03;;;13.70;94.30;;;;;;5060467;28;20198;-63
2021/11/14 04:34:56;;;;;;;22.97;5.07;;;13.80;94.30;;;;;;5066590;28;20991;-65
2021/11/14 04:37:22;;;;;;;18.17;5.07;;;13.90;93.90;;;;;;5063917;28;20210;-65
2021/11/14 04:39:48;;;;;;;25.50;5.33;;;13.90;93.60;;;;;;5054490;28;20183;-64
2021/11/14 04:42:14;;;;;;;19.47;4.63;;;13.80;93.70;;;;;;5062367;28;20273;-64
2021/11/14 04:44:41;;;;;;;28.93;5.40;;;13.90;93.70;;;;;;5063385;28;20215;-64
2021/11/14 04:47:07;;;;;;;20.77;5.43;;;13.90;93.70;;;;;;5055481;28;20191;-62
2021/11/14 04:49:34;;;;;;;27.50;4.90;;;13.90;93.70;;;;;;5063923;28;20643;-63
2021/11/14 04:52:00;;;;;;;18.70;5.57;;;14.00;93.90;;;;;;5056492;28;20273;-64
2021/11/14 04:54:27;;;;;;;18.67;4.97;;;14.00;94.00;;;;;;5066503;28;20245;-62
2021/11/14 04:56:53;;;;;;;25.53;5.50;;;14.10;94.10;;;;;;5053795;28;20201;-63
2021/11/14 04:59:20;;;;;;;26.20;6.13;;;14.10;94.10;;;;;;5064148;28;20210;-63
2021/11/14 05:01:46;;;;;;;21.80;5.00;;;14.10;94.10;;;;;;5052162;28;20199;-63
2021/11/14 05:04:13;;;;;;;16.00;5.33;;;14.20;94.40;;;;;;5047361;28;20204;-62
2021/11/14 05:06:39;;;;;;;19.93;5.30;;;14.30;94.70;;;;;;5077253;28;20190;-64
2021/11/14 05:09:06;;;;;;;17.80;5.30;;;14.30;95.00;;;;;;5064552;28;20226;-64
2021/11/14 05:11:32;;;;;;;32.17;5.50;;;14.30;95.20;;;;;;5065880;28;20838;-63
2021/11/14 05:13:59;;;;;;;19.70;5.43;;;14.40;95.50;;;;;;5065595;28;20195;-63
2021/11/14 05:16:25;;;;;;;20.97;6.27;;;14.40;95.40;;;;;;5065942;28;20282;-64
2021/11/14 05:18:51;;;;;;;15.10;6.47;;;14.40;95.60;;;;;;5063996;28;20214;-64
2021/11/14 05:21:18;;;;;;;20.80;6.40;;;14.50;95.60;;;;;;5056536;28;21120;-65
2021/11/14 05:23:44;;;;;;;24.93;6.10;;;14.50;95.60;;;;;;5065935;28;20202;-65
2021/11/14 05:26:11;;;;;;;15.53;5.83;;;14.50;95.40;;;;;;5065896;28;20183;-64
2021/11/14 05:28:38;;;;;;;21.57;5.50;;;14.60;95.50;;;;;;5062461;28;20944;-65
2021/11/14 05:31:05;;;;;;;18.67;4.63;;;14.60;95.60;;;;;;5061752;28;20247;-63
2021/11/14 05:33:32;;;;;;;16.13;5.80;;;14.60;95.40;;;;;;5053467;28;20199;-65
2021/11/14 05:35:58;;;;;;;12.87;5.27;;;14.70;95.60;;;;;;5054650;28;20203;-64
2021/11/14 05:38:28;;;;;;;15.53;5.27;;;14.70;95.70;;;;;;5060853;28;20846;-63
2021/11/14 05:40:55;;;;;;;13.53;5.43;;;14.80;95.90;;;;;;5053357;28;20195;-64
2021/11/14 05:43:21;;;;;;;14.50;5.80;;;14.80;95.80;;;;;;5063288;28;20689;-63
2021/11/14 05:45:47;;;;;;;24.63;5.80;;;14.90;96.00;;;;;;5065977;28;20198;-64
2021/11/14 05:48:14;;;;;;;21.10;6.17;;;14.90;95.70;;;;;;5064326;28;20248;-64
2021/11/14 05:50:41;;;;;;;23.00;5.33;;;15.00;95.80;;;;;;5059567;28;20190;-64
2021/11/14 05:53:09;;;;;;;25.13;5.30;;;15.00;95.90;;;;;;5060330;28;20277;-65
2021/11/14 05:55:36;;;;;;;24.97;5.60;;;15.10;95.90;;;;;;5056948;28;20210;-65
2021/11/14 05:58:06;;;;;;;21.93;5.70;;;15.20;96.00;;;;;;5062038;28;20218;-65
2021/11/14 06:03:23;;;;;;;20.23;4.70;;;15.20;96.30;;;;;;5059330;28;20244;-66
2021/11/14 06:05:49;;;;;;;16.57;5.10;;;15.30;96.40;;;;;;5058850;28;20179;-65
2021/11/14 06:08:21;;;;;;;27.37;4.93;;;15.40;96.60;;;;;;5061212;28;20225;-65
2021/11/14 06:10:53;;;;;;;25.70;5.00;;;15.40;96.60;;;;;;5055101;28;20240;-64
2021/11/14 06:13:26;;;;;;;11.10;4.93;;;15.50;96.80;;;;;;5062171;28;20182;-65
2021/11/14 06:15:53;;;;;;;13.80;4.87;;;15.60;97.00;;;;;;5067517;28;20188;-65
2021/11/14 06:18:20;;;;;;;22.57;4.70;;;15.70;97.20;;;;;;5057927;28;20716;-65
2021/11/14 06:20:47;;;;;;;21.40;4.20;;;15.80;97.00;;;;;;5062712;28;20278;-65
2021/11/14 06:23:15;;;;;;;11.53;4.50;;;15.80;97.00;;;;;;5064068;28;20206;-64
2021/11/14 06:25:43;;;;;;;20.97;5.80;;;15.90;97.30;;;;;;5066395;28;20195;-64
2021/11/14 06:28:09;;;;;;;17.20;5.17;;;15.90;97.10;;;;;;5048669;28;20179;-64
2021/11/14 06:30:37;;;;;;;12.90;4.40;;;16.00;97.30;;;;;;5059446;28;20196;-64
2021/11/14 06:33:05;;;;;;;23.27;4.23;;;16.10;97.40;;;;;;5065749;28;20194;-64
2021/11/14 06:35:32;;;;;;;24.70;5.07;;;16.10;96.80;;;;;;5065255;28;20872;-64
2021/11/14 06:37:58;;;;;;;13.67;4.60;;;16.20;96.40;;;;;;5064027;28;20218;-65
2021/11/14 06:40:25;;;;;;;16.57;5.00;;;16.20;95.80;;;;;;5051623;28;20257;-65
2021/11/14 06:42:52;;;;;;;17.40;5.07;;;16.30;95.60;;;;;;5063739;28;20897;-64
2021/11/14 06:45:18;;;;;;;19.37;5.07;;;16.30;96.30;;;;;;5067924;28;20187;-64
2021/11/14 06:47:45;;;;;;;23.40;5.00;;;16.40;96.00;;;;;;5062249;28;20546;-64
2021/11/14 06:50:14;;;;;;;21.90;5.50;;;16.40;95.90;;;;;;5062512;28;20294;-64
2021/11/14 06:52:42;;;;;;;15.17;4.77;;;16.40;95.30;;;;;;5060558;28;20182;-64
2021/11/14 06:55:12;;;;;;;27.13;5.23;;;16.50;95.40;;;;;;5067839;28;20579;-65
2021/11/14 06:57:39;;;;;;;21.63;4.97;;;16.50;95.30;;;;;;5056081;28;20219;-65
2021/11/14 07:00:18;;;;;;;18.17;4.90;;;16.60;94.20;;;;;;5054471;28;20287;-64
2021/11/14 07:02:45;;;;;;;22.47;5.30;;;16.70;94.60;;;;;;5057535;28;20194;-64
2021/11/14 07:05:11;;;;;;;20.53;5.70;;;17.10;94.80;;;;;;5059119;28;20183;-64
2021/11/14 07:07:39;;;;;;;19.03;4.90;;;17.10;94.40;;;;;;5056278;28;20183;-66
2021/11/14 07:10:08;;;;;;;15.43;5.40;;;17.00;94.20;;;;;;5068641;28;20619;-64
2021/11/14 07:12:36;;;;;;;20.33;5.63;;;17.00;93.70;;;;;;5069038;28;20578;-64
2021/11/14 07:15:05;;;;;;;19.10;4.77;;;17.00;93.10;;;;;;5050961;28;20219;-65
2021/11/14 07:17:32;;;;;;;16.90;5.17;;;17.00;92.50;;;;;;5054138;28;20214;-65
2021/11/14 07:20:00;;;;;;;25.00;5.87;;;17.00;93.10;;;;;;5056754;28;20706;-65
2021/11/14 07:22:27;;;;;;;25.53;6.53;;;17.00;92.90;;;;;;5059064;28;20304;-65
2021/11/14 07:24:54;;;;;;;24.87;6.43;;;17.10;93.50;;;;;;5066216;28;20194;-64
2021/11/14 07:27:21;;;;;;;28.00;5.93;;;17.10;93.70;;;;;;5064973;28;20183;-66
2021/11/14 07:29:49;;;;;;;21.43;5.40;;;17.20;93.40;;;;;;5062135;28;20213;-64
2021/11/14 07:32:18;;;;;;;24.57;6.40;;;17.20;93.30;;;;;;5066412;28;20324;-65
2021/11/14 07:34:45;;;;;;;16.73;5.63;;;17.20;93.50;;;;;;5050760;28;20184;-64
2021/11/14 07:37:12;;;;;;;13.17;5.27;;;17.30;93.80;;;;;;5058039;28;20214;-65
2021/11/14 07:39:41;;;;;;;14.33;5.57;;;17.40;93.60;;;;;;5059397;28;20188;-63
2021/11/14 07:42:08;;;;;;;22.73;5.40;;;17.50;94.10;;;;;;5063303;28;20711;-63
2021/11/14 07:44:34;;;;;;;15.73;5.13;;;17.50;94.40;;;;;;5058451;28;20195;-63
2021/11/14 07:47:03;;;;;;;23.23;5.30;;;17.50;94.10;;;;;;5059982;28;20184;-64
2021/11/14 07:49:29;;;;;;;16.50;5.57;;;17.60;93.00;;;;;;5057605;28;20991;-65
2021/11/14 07:51:55;;;;;;;22.83;5.47;;;17.60;91.90;;;;;;5063752;28;20233;-65
2021/11/14 07:54:22;;;;;;;32.97;5.83;;;17.60;92.10;;;;;;5067684;28;20278;-64
2021/11/14 07:56:48;;;;;;;24.87;5.33;;;17.70;92.40;;;;;;5064724;28;20197;-62
2021/11/14 07:59:15;;;;;;;16.50;5.17;;;17.70;92.90;;;;;;5059983;28;20219;-61
2021/11/14 08:01:41;;;;;;;26.17;5.57;;;17.80;92.90;;;;;;5061553;28;20175;-62
2021/11/14 08:04:07;;;;;;;24.53;5.17;;;17.80;92.80;;;;;;5058750;28;20179;-63
2021/11/14 08:06:36;;;;;;;22.90;5.70;;;18.00;93.30;;;;;;5060692;28;20998;-63
2021/11/14 08:09:04;;;;;;;14.47;4.60;;;18.00;93.90;;;;;;5052798;28;20295;-64
2021/11/14 08:11:31;;;;;;;18.97;6.00;;;18.10;94.00;;;;;;5063390;28;20189;-62
2021/11/14 08:13:57;;;;;;;26.73;5.90;;;18.20;94.30;;;;;;5057405;28;20195;-65
2021/11/14 08:16:23;;;;;;;15.50;5.80;;;18.30;93.40;;;;;;5056240;28;20496;-65
2021/11/14 08:18:50;;;;;;;15.60;5.50;;;18.30;93.10;;;;;;5059440;28;20206;-65
2021/11/14 08:21:16;;;;;;;21.87;6.57;;;18.40;94.20;;;;;;5060364;28;20189;-65
2021/11/14 08:23:42;;;;;;;19.73;5.17;;;18.40;93.00;;;;;;5049399;28;20207;-65
2021/11/14 08:26:08;;;;;;;28.37;6.17;;;18.40;92.60;;;;;;5061300;28;20273;-65
2021/11/14 08:28:35;;;;;;;22.57;5.83;;;18.50;93.00;;;;;;5053229;28;20607;-65
2021/11/14 08:31:02;;;;;;;23.23;6.53;;;18.60;92.60;;;;;;5055066;28;20753;-65
2021/11/14 08:33:30;;;;;;;23.47;5.50;;;18.70;92.20;;;;;;5058748;28;20187;-65
2021/11/14 08:35:56;;;;;;;28.47;5.77;;;18.90;91.60;;;;;;5060178;28;20190;-66
2021/11/14 08:38:24;;;;;;;18.97;5.63;;;19.00;91.60;;;;;;5053316;28;20206;-65
2021/11/14 08:40:50;;;;;;;25.13;6.10;;;19.00;91.60;;;;;;5061137;28;20550;-65
2021/11/14 08:43:18;;;;;;;20.07;6.10;;;19.10;91.60;;;;;;5058148;28;20191;-63
2021/11/14 08:45:44;;;;;;;29.37;6.67;;;19.20;90.90;;;;;;5063466;28;20193;-66
2021/11/14 08:48:11;;;;;;;28.97;5.50;;;19.30;91.00;;;;;;5062001;28;20198;-65
2021/11/14 08:50:37;;;;;;;24.57;5.67;;;19.30;90.60;;;;;;5058397;28;20843;-66
2021/11/14 08:53:04;;;;;;;27.13;5.90;;;19.50;90.60;;;;;;5057839;28;20198;-66
2021/11/14 08:55:32;;;;;;;27.03;5.40;;;19.60;90.50;;;;;;5054312;28;20191;-65
2021/11/14 08:58:00;;;;;;;25.73;7.20;;;19.70;90.40;;;;;;5053525;28;20345;-65
2021/11/14 09:00:31;;;;;;;26.37;6.03;;;19.80;90.50;;;;;;5054131;28;20205;-65
2021/11/14 09:03:00;;;;;;;19.77;5.60;;;19.90;89.80;;;;;;5060550;28;20281;-67
2021/11/14 09:05:30;;;;;;;26.80;5.93;;;20.00;89.90;;;;;;5061216;28;20528;-67
2021/11/14 09:08:00;;;;;;;22.90;6.00;;;20.00;89.30;;;;;;5050886;28;20191;-67
2021/11/14 09:10:28;;;;;;;19.77;5.87;;;20.00;89.10;;;;;;5052395;28;20190;-66
2021/11/14 09:12:55;;;;;;;19.77;5.60;;;20.00;88.80;;;;;;5051678;28;20294;-65
2021/11/14 09:15:23;;;;;;;27.00;5.53;;;20.00;88.60;;;;;;5045689;28;20194;-65
2021/11/14 09:17:50;;;;;;;30.63;6.30;;;20.10;87.40;;;;;;5052909;28;20237;-66
2021/11/14 09:20:17;;;;;;;17.97;6.20;;;20.20;86.90;;;;;;5050207;28;20232;-66
2021/11/14 09:22:44;;;;;;;31.00;6.43;;;20.40;87.50;;;;;;5051601;28;20199;-66
2021/11/14 09:25:11;;;;;;;29.43;5.60;;;20.50;86.70;;;;;;5059809;28;20183;-66
2021/11/14 09:27:38;;;;;;;27.67;6.43;;;20.70;86.10;;;;;;5058578;28;20221;-66
2021/11/14 09:30:08;;;;;;;30.17;6.43;;;20.80;86.20;;;;;;5058436;28;20187;-66
2021/11/14 09:32:36;;;;;;;22.57;6.23;;;20.90;84.80;;;;;;5047987;28;20247;-67
2021/11/14 09:35:04;;;;;;;29.03;6.53;;;21.10;84.60;;;;;;5060020;28;20237;-66
2021/11/14 09:37:30;;;;;;;25.13;5.33;;;21.20;86.10;;;;;;5059797;28;20214;-66
2021/11/14 09:39:57;;;;;;;30.43;6.43;;;21.20;86.10;;;;;;5060221;28;20202;-66
2021/11/14 09:42:29;;;;;;;21.93;6.17;;;21.30;84.40;;;;;;5046921;28;20214;-66
2021/11/14 09:44:56;;;;;;;25.80;6.23;;;21.50;85.30;;;;;;5055602;28;20183;-67
2021/11/14 09:47:24;;;;;;;17.93;5.80;;;21.50;85.90;;;;;;5059755;28;20236;-65
2021/11/14 09:49:51;;;;;;;18.37;6.70;;;21.60;84.90;;;;;;5050610;28;20624;-66
2021/11/14 09:52:17;;;;;;;23.87;5.80;;;21.70;85.80;;;;;;5051828;28;20207;-66
2021/11/14 09:54:44;;;;;;;21.43;6.27;;;22.00;85.20;;;;;;5053949;28;20266;-66
2021/11/14 09:57:12;;;;;;;22.87;6.57;;;23.20;83.50;;;;;;5052665;28;20233;-66
2021/11/14 09:59:41;;;;;;;30.23;6.00;;;23.10;81.20;;;;;;5054835;28;20200;-66
2021/11/14 10:02:09;;;;;;;30.92;6.68;;;22.70;83.60;;;;;;5055591;28;20661;-65
2021/11/14 10:04:35;;;;;;;40.27;7.30;;;22.70;81.30;;;;;;5062700;28;20194;-65
2021/11/14 10:07:09;;;;;;;34.95;6.93;;;22.90;80.60;;;;;;5048627;28;20897;-65
2021/11/14 10:09:52;;;;;;;21.20;6.87;;;23.10;83.50;;;;;;5062532;28;21027;-66
2021/11/14 10:12:28;;;;;;;26.58;6.82;;;23.20;85.80;;;;;;5051537;28;20191;-65
2021/11/14 10:15:16;;;;;;;32.97;7.35;;;23.40;86.00;;;;;;5054838;28;20535;-66
2021/11/14 10:17:55;;;;;;;36.90;8.70;;;23.60;82.00;;;;;;5058546;28;20228;-67
2021/11/14 10:20:31;;;;;;;57.78;9.82;;;23.90;82.80;;;;;;5058964;28;20205;-66
2021/11/14 10:23:05;;;;;;;69.22;11.55;;;24.40;80.60;;;;;;5054451;28;20301;-66
2021/11/14 10:25:32;;;;;;;68.78;12.63;;;25.30;79.00;;;;;;5055129;28;20236;-66
2021/11/14 10:28:02;;;;;;;64.10;12.15;;;26.30;78.50;;;;;;5062924;28;20186;-65
2021/11/14 10:30:33;;;;;;;57.35;9.95;;;26.70;76.70;;;;;;5060391;28;20686;-66
2021/11/14 10:33:12;;;;;;;65.93;10.80;;;26.10;74.90;;;;;;5061357;28;20272;-66
2021/11/14 10:35:42;;;;;;;56.75;10.05;;;25.40;75.50;;;;;;5065530;28;20529;-65
2021/11/14 10:38:15;;;;;;;78.00;11.95;;;25.10;78.10;;;;;;5056285;28;20701;-62
2021/11/14 10:41:01;;;;;;;38.60;9.00;;;25.10;77.10;;;;;;5052282;28;20194;-65
2021/11/14 10:43:30;;;;;;;40.60;9.20;;;25.10;79.30;;;;;;5049735;28;20624;-66
2021/11/14 10:46:00;;;;;;;34.10;8.27;;;25.20;80.00;;;;;;5053882;28;20195;-65
2021/11/14 10:48:29;;;;;;;27.25;6.97;;;25.20;80.50;;;;;;5055865;28;20191;-65
2021/11/14 10:51:02;;;;;;;24.58;7.47;;;25.10;83.00;;;;;;5056147;28;20757;-65
2021/11/14 10:53:32;;;;;;;29.60;6.70;;;24.90;85.30;;;;;;5065572;28;20187;-66
2021/11/14 10:56:10;;;;;;;18.25;6.72;;;24.70;86.20;;;;;;5046252;28;20639;-65
2021/11/14 10:58:37;;;;;;;32.47;6.88;;;24.40;87.70;;;;;;5061687;28;21112;-65
2021/11/14 11:01:08;;;;;;;34.65;7.00;;;24.20;89.20;;;;;;5059071;28;20180;-64
2021/11/14 11:03:45;;;;;;;28.13;7.18;;;24.10;89.70;;;;;;5063307;28;20190;-65
2021/11/14 11:06:28;;;;;;;23.95;6.93;;;24.10;89.60;;;;;;5060576;28;20202;-65
2021/11/14 11:09:04;;;;;;;24.25;7.05;;;24.10;90.30;;;;;;5064877;28;20189;-65
2021/11/14 11:11:42;;;;;;;27.17;6.78;;;24.00;89.60;;;;;;5067515;28;20213;-65
2021/11/14 11:14:09;;;;;;;30.50;7.20;;;24.00;90.40;;;;;;5050458;28;20750;-64
2021/11/14 11:16:36;;;;;;;27.60;7.10;;;23.90;90.50;;;;;;5067480;28;20330;-65
2021/11/14 11:19:08;;;;;;;28.48;7.63;;;23.80;90.40;;;;;;5067338;28;20297;-64
2021/11/14 11:21:45;;;;;;;32.80;7.75;;;23.80;90.50;;;;;;5054030;28;20186;-65
2021/11/14 11:24:24;;;;;;;29.77;7.47;;;23.80;91.00;;;;;;5066752;28;20278;-65
2021/11/14 11:27:07;;;;;;;29.77;6.82;;;23.80;91.50;;;;;;5060904;28;20189;-65
2021/11/14 11:29:37;;;;;;;27.27;7.30;;;23.70;91.80;;;;;;5063645;28;20198;-65
2021/11/14 11:32:08;;;;;;;24.75;7.95;;;23.60;92.30;;;;;;5055083;28;20206;-65
2021/11/14 11:34:34;;;;;;;34.92;7.55;;;23.60;92.60;;;;;;5062760;28;20192;-64
2021/11/14 11:37:02;;;;;;;25.65;7.93;;;23.60;92.40;;;;;;5060484;28;20211;-65
2021/11/14 11:39:30;;;;;;;19.83;6.82;;;23.70;92.80;;;;;;5054676;28;20218;-65
2021/11/14 11:41:59;;;;;;;21.50;7.88;;;23.60;92.80;;;;;;5058460;28;20282;-64
2021/11/14 11:44:27;;;;;;;30.63;8.05;;;23.40;93.90;;;;;;5065811;28;20285;-65
2021/11/14 11:47:03;;;;;;;30.67;7.95;;;23.30;94.20;;;;;;5065954;28;20194;-64
2021/11/14 11:49:31;;;;;;;18.42;7.07;;;23.20;94.70;;;;;;5059305;28;20940;-65
2021/11/14 11:52:05;;;;;;;28.13;8.27;;;23.20;95.00;;;;;;5049745;28;20253;-65
2021/11/14 11:54:36;;;;;;;26.85;7.78;;;23.20;95.00;;;;;;5064724;28;20205;-65
2021/11/14 11:57:10;;;;;;;23.20;8.13;;;23.20;95.40;;;;;;5065304;28;20842;-65
2021/11/14 12:00:09;;;;;;;27.92;8.57;;;23.20;95.80;;;;;;5063773;28;20223;-64
2021/11/14 12:02:35;;;;;;;27.98;7.85;;;23.10;96.00;;;;;;5059309;28;20207;-64
2021/11/14 12:05:13;;;;;;;27.90;8.13;;;23.10;96.20;;;;;;5068047;28;20187;-65
2021/11/14 12:07:53;;;;;;;26.60;7.88;;;23.10;96.30;;;;;;5064520;28;20645;-64
2021/11/14 12:10:27;;;;;;;32.77;8.30;;;23.00;96.20;;;;;;5059805;28;20195;-66
2021/11/14 12:13:06;;;;;;;25.45;7.43;;;23.00;96.50;;;;;;5059767;28;20194;-65
2021/11/14 12:15:39;;;;;;;20.60;7.53;;;22.90;97.40;;;;;;5062182;28;20187;-64
2021/11/14 12:18:13;;;;;;;27.65;7.53;;;22.90;97.90;;;;;;5055989;28;20206;-65
2021/11/14 12:20:50;;;;;;;24.15;8.55;;;22.80;98.40;;;;;;5055769;28;20187;-65
2021/11/14 12:23:27;;;;;;;25.43;8.23;;;22.70;98.80;;;;;;5035740;28;20198;-65
2021/11/14 12:25:57;;;;;;;27.73;7.67;;;22.70;99.00;;;;;;5049515;28;20195;-65
2021/11/14 12:28:32;;;;;;;17.33;7.27;;;22.70;99.30;;;;;;5070278;28;20201;-65
2021/11/14 12:33:44;;;;;;;23.23;7.55;;;22.50;99.30;;;;;;5058732;28;20916;-65
2021/11/14 12:36:40;;;;;;;22.15;7.55;;;22.40;99.60;;;;;;5066844;28;20201;-65
2021/11/14 12:39:23;;;;;;;30.10;8.00;;;22.40;99.70;;;;;;5057259;28;20230;-65
2021/11/14 12:42:09;;;;;;;31.33;7.93;;;22.40;99.90;;;;;;5039237;28;20202;-65
2021/11/14 12:45:00;;;;;;;28.80;9.03;;;22.40;99.90;;;;;;5057203;28;20302;-65
2021/11/14 12:47:41;;;;;;;30.17;7.97;;;22.40;99.90;;;;;;5053966;28;20214;-65
2021/11/14 12:50:22;;;;;;;21.63;7.77;;;22.30;99.90;;;;;;5059658;28;20679;-65